sensor_id;sensor_type;location;lat;lon;timestamp;P1;durP1;ratioP1;P2;durP2;ratioP2
51949;SDS011;37974;53.218;6.640;2022-11-20T00:02:01;37.15;;;21.48;;
51949;SDS011;37974;53.218;6.640;2022-11-20T00:04:27;34.15;;;21.00;;
51949;SDS011;37974;53.218;6.640;2022-11-20T00:06:53;34.22;;;21.13;;
51949;SDS011;37974;53.218;6.640;2022-11-20T00:09:18;30.17;;;19.67;;
51949;SDS011;37974;53.218;6.640;2022-11-20T00:11:44;28.65;;;18.38;;
51949;SDS011;37974;53.218;6.640;2022-11-20T00:14:10;29.10;;;18.65;;
51949;SDS011;37974;53.218;6.640;2022-11-20T00:16:35;30.00;;;17.15;;
51949;SDS011;37974;53.218;6.640;2022-11-20T00:19:01;25.63;;;15.95;;
51949;SDS011;37974;53.218;6.640;2022-11-20T00:21:27;26.73;;;16.92;;
51949;SDS011;37974;53.218;6.640;2022-11-20T00:23:55;31.33;;;19.70;;
51949;SDS011;37974;53.218;6.640;2022-11-20T00:26:22;29.08;;;18.27;;
51949;SDS011;37974;53.218;6.640;2022-11-20T00:28:51;26.55;;;15.82;;
51949;SDS011;37974;53.218;6.640;2022-11-20T00:31:19;19.60;;;12.27;;
51949;SDS011;37974;53.218;6.640;2022-11-20T00:33:44;20.58;;;12.75;;
51949;SDS011;37974;53.218;6.640;2022-11-20T00:36:13;25.10;;;14.07;;
51949;SDS011;37974;53.218;6.640;2022-11-20T00:38:40;24.15;;;14.10;;
51949;SDS011;37974;53.218;6.640;2022-11-20T00:41:07;22.20;;;14.30;;
51949;SDS011;37974;53.218;6.640;2022-11-20T00:43:34;21.27;;;13.68;;
51949;SDS011;37974;53.218;6.640;2022-11-20T00:46:01;20.20;;;13.18;;
51949;SDS011;37974;53.218;6.640;2022-11-20T00:48:28;25.98;;;13.98;;
51949;SDS011;37974;53.218;6.640;2022-11-20T00:50:54;20.65;;;12.85;;
51949;SDS011;37974;53.218;6.640;2022-11-20T00:53:20;19.92;;;12.95;;
51949;SDS011;37974;53.218;6.640;2022-11-20T00:58:22;22.88;;;13.13;;
51949;SDS011;37974;53.218;6.640;2022-11-20T01:00:48;19.88;;;13.40;;
51949;SDS011;37974;53.218;6.640;2022-11-20T01:03:15;20.98;;;12.98;;
51949;SDS011;37974;53.218;6.640;2022-11-20T01:05:41;20.55;;;12.05;;
51949;SDS011;37974;53.218;6.640;2022-11-20T01:08:07;17.85;;;11.98;;
51949;SDS011;37974;53.218;6.640;2022-11-20T01:10:33;19.50;;;12.30;;
51949;SDS011;37974;53.218;6.640;2022-11-20T01:12:58;21.00;;;11.65;;
51949;SDS011;37974;53.218;6.640;2022-11-20T01:15:42;19.02;;;12.07;;
51949;SDS011;37974;53.218;6.640;2022-11-20T01:18:08;18.23;;;12.75;;
51949;SDS011;37974;53.218;6.640;2022-11-20T01:20:34;17.40;;;11.55;;
51949;SDS011;37974;53.218;6.640;2022-11-20T01:23:01;17.80;;;11.32;;
51949;SDS011;37974;53.218;6.640;2022-11-20T01:25:27;19.77;;;12.00;;
51949;SDS011;37974;53.218;6.640;2022-11-20T01:27:53;18.85;;;11.23;;
51949;SDS011;37974;53.218;6.640;2022-11-20T01:30:19;19.17;;;12.35;;
51949;SDS011;37974;53.218;6.640;2022-11-20T01:32:45;17.70;;;11.70;;
51949;SDS011;37974;53.218;6.640;2022-11-20T01:35:10;18.23;;;11.45;;
51949;SDS011;37974;53.218;6.640;2022-11-20T01:37:36;19.00;;;12.13;;
51949;SDS011;37974;53.218;6.640;2022-11-20T01:40:02;17.48;;;11.52;;
51949;SDS011;37974;53.218;6.640;2022-11-20T01:42:28;18.02;;;11.65;;
51949;SDS011;37974;53.218;6.640;2022-11-20T01:48:12;18.95;;;11.52;;
51949;SDS011;37974;53.218;6.640;2022-11-20T01:50:39;15.60;;;11.50;;
51949;SDS011;37974;53.218;6.640;2022-11-20T01:53:08;17.73;;;10.98;;
51949;SDS011;37974;53.218;6.640;2022-11-20T01:55:37;17.13;;;11.35;;
51949;SDS011;37974;53.218;6.640;2022-11-20T01:58:09;17.85;;;11.48;;
51949;SDS011;37974;53.218;6.640;2022-11-20T02:00:35;18.50;;;12.75;;
51949;SDS011;37974;53.218;6.640;2022-11-20T02:03:02;19.08;;;12.05;;
51949;SDS011;37974;53.218;6.640;2022-11-20T02:05:35;20.55;;;12.43;;
51949;SDS011;37974;53.218;6.640;2022-11-20T02:08:06;20.80;;;12.43;;
51949;SDS011;37974;53.218;6.640;2022-11-20T02:10:33;19.58;;;12.90;;
51949;SDS011;37974;53.218;6.640;2022-11-20T02:12:58;21.38;;;12.52;;
51949;SDS011;37974;53.218;6.640;2022-11-20T02:15:43;19.95;;;11.98;;
51949;SDS011;37974;53.218;6.640;2022-11-20T02:18:09;19.45;;;11.50;;
51949;SDS011;37974;53.218;6.640;2022-11-20T02:20:36;16.92;;;11.27;;
51949;SDS011;37974;53.218;6.640;2022-11-20T02:23:05;17.63;;;11.40;;
51949;SDS011;37974;53.218;6.640;2022-11-20T02:25:37;20.13;;;12.88;;
51949;SDS011;37974;53.218;6.640;2022-11-20T02:28:04;19.40;;;11.48;;
51949;SDS011;37974;53.218;6.640;2022-11-20T02:30:30;20.23;;;12.23;;
51949;SDS011;37974;53.218;6.640;2022-11-20T02:32:57;16.20;;;11.43;;
51949;SDS011;37974;53.218;6.640;2022-11-20T02:37:50;18.75;;;11.68;;
51949;SDS011;37974;53.218;6.640;2022-11-20T02:40:18;21.02;;;12.60;;
51949;SDS011;37974;53.218;6.640;2022-11-20T02:42:44;17.30;;;11.60;;
51949;SDS011;37974;53.218;6.640;2022-11-20T02:45:10;18.80;;;12.63;;
51949;SDS011;37974;53.218;6.640;2022-11-20T02:47:36;18.90;;;11.48;;
51949;SDS011;37974;53.218;6.640;2022-11-20T02:50:02;18.00;;;11.75;;
51949;SDS011;37974;53.218;6.640;2022-11-20T02:52:29;18.77;;;12.80;;
51949;SDS011;37974;53.218;6.640;2022-11-20T02:54:55;17.58;;;11.80;;
51949;SDS011;37974;53.218;6.640;2022-11-20T02:57:20;20.20;;;12.68;;
51949;SDS011;37974;53.218;6.640;2022-11-20T02:59:46;18.05;;;12.13;;
51949;SDS011;37974;53.218;6.640;2022-11-20T03:02:12;17.48;;;12.30;;
51949;SDS011;37974;53.218;6.640;2022-11-20T03:04:38;22.25;;;13.23;;
51949;SDS011;37974;53.218;6.640;2022-11-20T03:07:03;17.95;;;11.98;;
51949;SDS011;37974;53.218;6.640;2022-11-20T03:09:29;19.63;;;13.02;;
51949;SDS011;37974;53.218;6.640;2022-11-20T03:11:55;18.63;;;12.15;;
51949;SDS011;37974;53.218;6.640;2022-11-20T03:14:20;24.40;;;12.27;;
51949;SDS011;37974;53.218;6.640;2022-11-20T03:16:46;19.10;;;12.70;;
51949;SDS011;37974;53.218;6.640;2022-11-20T03:19:12;17.65;;;12.07;;
51949;SDS011;37974;53.218;6.640;2022-11-20T03:21:38;15.98;;;11.57;;
51949;SDS011;37974;53.218;6.640;2022-11-20T03:24:04;17.10;;;12.38;;
51949;SDS011;37974;53.218;6.640;2022-11-20T03:26:31;17.50;;;12.10;;
51949;SDS011;37974;53.218;6.640;2022-11-20T03:28:57;16.45;;;11.15;;
51949;SDS011;37974;53.218;6.640;2022-11-20T03:31:26;17.58;;;11.05;;
51949;SDS011;37974;53.218;6.640;2022-11-20T03:33:53;16.40;;;10.75;;
51949;SDS011;37974;53.218;6.640;2022-11-20T03:36:20;19.55;;;11.15;;
51949;SDS011;37974;53.218;6.640;2022-11-20T03:38:47;14.45;;;10.43;;
51949;SDS011;37974;53.218;6.640;2022-11-20T03:41:14;15.27;;;9.73;;
51949;SDS011;37974;53.218;6.640;2022-11-20T03:43:42;16.85;;;10.30;;
51949;SDS011;37974;53.218;6.640;2022-11-20T03:46:13;15.95;;;10.40;;
51949;SDS011;37974;53.218;6.640;2022-11-20T03:48:39;17.00;;;10.75;;
51949;SDS011;37974;53.218;6.640;2022-11-20T03:51:07;14.90;;;9.68;;
51949;SDS011;37974;53.218;6.640;2022-11-20T03:53:34;17.67;;;10.43;;
51949;SDS011;37974;53.218;6.640;2022-11-20T03:56:00;14.48;;;10.20;;
51949;SDS011;37974;53.218;6.640;2022-11-20T03:58:26;15.10;;;10.07;;
51949;SDS011;37974;53.218;6.640;2022-11-20T04:00:51;16.20;;;10.55;;
51949;SDS011;37974;53.218;6.640;2022-11-20T04:03:19;15.48;;;10.07;;
51949;SDS011;37974;53.218;6.640;2022-11-20T04:05:45;16.75;;;11.00;;
51949;SDS011;37974;53.218;6.640;2022-11-20T04:08:11;15.98;;;11.05;;
51949;SDS011;37974;53.218;6.640;2022-11-20T04:10:36;17.52;;;11.23;;
51949;SDS011;37974;53.218;6.640;2022-11-20T04:13:02;18.85;;;11.18;;
51949;SDS011;37974;53.218;6.640;2022-11-20T04:15:28;16.92;;;10.38;;
51949;SDS011;37974;53.218;6.640;2022-11-20T04:17:54;14.98;;;9.90;;
51949;SDS011;37974;53.218;6.640;2022-11-20T04:20:20;15.43;;;9.90;;
51949;SDS011;37974;53.218;6.640;2022-11-20T04:22:46;14.73;;;10.65;;
51949;SDS011;37974;53.218;6.640;2022-11-20T04:25:12;15.50;;;10.30;;
51949;SDS011;37974;53.218;6.640;2022-11-20T04:27:37;14.85;;;10.43;;
51949;SDS011;37974;53.218;6.640;2022-11-20T04:30:03;14.88;;;10.07;;
51949;SDS011;37974;53.218;6.640;2022-11-20T04:32:29;17.95;;;11.85;;
51949;SDS011;37974;53.218;6.640;2022-11-20T04:34:55;17.02;;;10.60;;
51949;SDS011;37974;53.218;6.640;2022-11-20T04:37:21;21.42;;;11.10;;
51949;SDS011;37974;53.218;6.640;2022-11-20T04:39:46;16.42;;;10.70;;
51949;SDS011;37974;53.218;6.640;2022-11-20T04:42:12;15.65;;;10.60;;
51949;SDS011;37974;53.218;6.640;2022-11-20T04:44:54;17.48;;;11.10;;
51949;SDS011;37974;53.218;6.640;2022-11-20T04:47:21;17.48;;;10.68;;
51949;SDS011;37974;53.218;6.640;2022-11-20T04:49:47;17.27;;;10.43;;
51949;SDS011;37974;53.218;6.640;2022-11-20T04:52:12;16.05;;;10.45;;
51949;SDS011;37974;53.218;6.640;2022-11-20T04:54:38;19.13;;;11.23;;
51949;SDS011;37974;53.218;6.640;2022-11-20T04:57:04;16.60;;;11.00;;
51949;SDS011;37974;53.218;6.640;2022-11-20T04:59:30;16.38;;;10.35;;
51949;SDS011;37974;53.218;6.640;2022-11-20T05:01:55;16.25;;;11.32;;
51949;SDS011;37974;53.218;6.640;2022-11-20T05:04:21;16.10;;;11.20;;
51949;SDS011;37974;53.218;6.640;2022-11-20T05:06:47;16.65;;;11.15;;
51949;SDS011;37974;53.218;6.640;2022-11-20T05:09:14;16.38;;;10.48;;
51949;SDS011;37974;53.218;6.640;2022-11-20T05:11:39;15.05;;;10.18;;
51949;SDS011;37974;53.218;6.640;2022-11-20T05:14:05;19.30;;;11.38;;
51949;SDS011;37974;53.218;6.640;2022-11-20T05:16:31;15.85;;;11.45;;
51949;SDS011;37974;53.218;6.640;2022-11-20T05:18:59;18.60;;;11.38;;
51949;SDS011;37974;53.218;6.640;2022-11-20T05:21:25;15.35;;;10.55;;
51949;SDS011;37974;53.218;6.640;2022-11-20T05:23:50;18.70;;;11.38;;
51949;SDS011;37974;53.218;6.640;2022-11-20T05:26:18;17.17;;;10.68;;
51949;SDS011;37974;53.218;6.640;2022-11-20T05:28:47;15.38;;;9.95;;
51949;SDS011;37974;53.218;6.640;2022-11-20T05:31:15;15.10;;;9.95;;
51949;SDS011;37974;53.218;6.640;2022-11-20T05:33:42;15.98;;;10.95;;
51949;SDS011;37974;53.218;6.640;2022-11-20T05:36:10;15.85;;;10.38;;
51949;SDS011;37974;53.218;6.640;2022-11-20T05:38:37;17.33;;;10.85;;
51949;SDS011;37974;53.218;6.640;2022-11-20T05:41:07;15.57;;;10.75;;
51949;SDS011;37974;53.218;6.640;2022-11-20T05:43:41;15.07;;;10.75;;
51949;SDS011;37974;53.218;6.640;2022-11-20T05:46:09;18.08;;;11.68;;
51949;SDS011;37974;53.218;6.640;2022-11-20T05:48:37;15.20;;;10.25;;
51949;SDS011;37974;53.218;6.640;2022-11-20T05:51:05;15.57;;;10.75;;
51949;SDS011;37974;53.218;6.640;2022-11-20T05:53:33;16.63;;;10.63;;
51949;SDS011;37974;53.218;6.640;2022-11-20T05:56:00;17.13;;;11.15;;
51949;SDS011;37974;53.218;6.640;2022-11-20T05:58:28;16.63;;;10.85;;
51949;SDS011;37974;53.218;6.640;2022-11-20T06:00:54;16.83;;;11.02;;
51949;SDS011;37974;53.218;6.640;2022-11-20T06:03:20;20.38;;;11.40;;
51949;SDS011;37974;53.218;6.640;2022-11-20T06:05:46;15.50;;;10.77;;
51949;SDS011;37974;53.218;6.640;2022-11-20T06:08:12;16.65;;;10.35;;
51949;SDS011;37974;53.218;6.640;2022-11-20T06:10:37;15.40;;;10.68;;
51949;SDS011;37974;53.218;6.640;2022-11-20T06:13:03;15.38;;;10.05;;
51949;SDS011;37974;53.218;6.640;2022-11-20T06:15:29;15.85;;;10.77;;
51949;SDS011;37974;53.218;6.640;2022-11-20T06:17:54;19.85;;;10.50;;
51949;SDS011;37974;53.218;6.640;2022-11-20T06:20:21;16.63;;;11.02;;
51949;SDS011;37974;53.218;6.640;2022-11-20T06:22:47;17.58;;;10.60;;
51949;SDS011;37974;53.218;6.640;2022-11-20T06:25:13;18.35;;;10.95;;
51949;SDS011;37974;53.218;6.640;2022-11-20T06:27:39;16.67;;;10.90;;
51949;SDS011;37974;53.218;6.640;2022-11-20T06:30:05;15.43;;;10.10;;
51949;SDS011;37974;53.218;6.640;2022-11-20T06:32:32;14.95;;;10.32;;
51949;SDS011;37974;53.218;6.640;2022-11-20T06:34:58;15.60;;;10.30;;
51949;SDS011;37974;53.218;6.640;2022-11-20T06:37:23;15.15;;;10.48;;
51949;SDS011;37974;53.218;6.640;2022-11-20T06:39:49;14.15;;;9.82;;
51949;SDS011;37974;53.218;6.640;2022-11-20T06:42:15;16.90;;;10.32;;
51949;SDS011;37974;53.218;6.640;2022-11-20T06:44:40;16.65;;;9.57;;
51949;SDS011;37974;53.218;6.640;2022-11-20T06:47:06;14.20;;;9.63;;
51949;SDS011;37974;53.218;6.640;2022-11-20T06:49:32;14.32;;;9.65;;
51949;SDS011;37974;53.218;6.640;2022-11-20T06:51:59;14.55;;;10.13;;
51949;SDS011;37974;53.218;6.640;2022-11-20T06:54:25;13.55;;;9.77;;
51949;SDS011;37974;53.218;6.640;2022-11-20T06:56:50;16.88;;;10.00;;
51949;SDS011;37974;53.218;6.640;2022-11-20T06:59:16;14.88;;;10.10;;
51949;SDS011;37974;53.218;6.640;2022-11-20T07:01:42;14.95;;;10.63;;
51949;SDS011;37974;53.218;6.640;2022-11-20T07:04:07;16.73;;;10.15;;
51949;SDS011;37974;53.218;6.640;2022-11-20T07:06:33;15.55;;;10.68;;
51949;SDS011;37974;53.218;6.640;2022-11-20T07:08:59;16.30;;;10.98;;
51949;SDS011;37974;53.218;6.640;2022-11-20T07:11:24;14.20;;;10.75;;
51949;SDS011;37974;53.218;6.640;2022-11-20T07:13:50;18.95;;;11.13;;
51949;SDS011;37974;53.218;6.640;2022-11-20T07:16:16;17.48;;;10.63;;
51949;SDS011;37974;53.218;6.640;2022-11-20T07:18:42;15.32;;;10.02;;
51949;SDS011;37974;53.218;6.640;2022-11-20T07:21:08;16.10;;;10.43;;
51949;SDS011;37974;53.218;6.640;2022-11-20T07:23:35;13.90;;;10.07;;
51949;SDS011;37974;53.218;6.640;2022-11-20T07:26:03;15.65;;;10.30;;
51949;SDS011;37974;53.218;6.640;2022-11-20T07:28:31;15.15;;;10.38;;
51949;SDS011;37974;53.218;6.640;2022-11-20T07:30:56;14.85;;;10.75;;
51949;SDS011;37974;53.218;6.640;2022-11-20T07:33:22;14.90;;;9.95;;
51949;SDS011;37974;53.218;6.640;2022-11-20T07:35:48;17.42;;;11.30;;
51949;SDS011;37974;53.218;6.640;2022-11-20T07:38:14;14.07;;;10.55;;
51949;SDS011;37974;53.218;6.640;2022-11-20T07:40:40;16.75;;;11.38;;
51949;SDS011;37974;53.218;6.640;2022-11-20T07:43:05;16.58;;;10.90;;
51949;SDS011;37974;53.218;6.640;2022-11-20T07:45:31;14.85;;;10.68;;
51949;SDS011;37974;53.218;6.640;2022-11-20T07:47:57;18.40;;;11.48;;
51949;SDS011;37974;53.218;6.640;2022-11-20T07:50:23;17.98;;;10.32;;
51949;SDS011;37974;53.218;6.640;2022-11-20T07:52:49;14.40;;;10.32;;
51949;SDS011;37974;53.218;6.640;2022-11-20T07:55:15;14.80;;;10.15;;
51949;SDS011;37974;53.218;6.640;2022-11-20T07:57:41;14.65;;;10.40;;
51949;SDS011;37974;53.218;6.640;2022-11-20T08:00:08;16.27;;;10.23;;
51949;SDS011;37974;53.218;6.640;2022-11-20T08:02:40;13.70;;;10.07;;
51949;SDS011;37974;53.218;6.640;2022-11-20T08:05:07;15.10;;;10.73;;
51949;SDS011;37974;53.218;6.640;2022-11-20T08:07:37;16.38;;;9.77;;
51949;SDS011;37974;53.218;6.640;2022-11-20T08:10:05;16.58;;;10.15;;
51949;SDS011;37974;53.218;6.640;2022-11-20T08:12:32;13.57;;;9.60;;
51949;SDS011;37974;53.218;6.640;2022-11-20T08:15:16;15.52;;;10.50;;
51949;SDS011;37974;53.218;6.640;2022-11-20T08:17:42;14.45;;;9.80;;
51949;SDS011;37974;53.218;6.640;2022-11-20T08:20:08;15.48;;;10.50;;
51949;SDS011;37974;53.218;6.640;2022-11-20T08:22:34;15.13;;;10.45;;
51949;SDS011;37974;53.218;6.640;2022-11-20T08:24:59;12.30;;;9.15;;
51949;SDS011;37974;53.218;6.640;2022-11-20T08:27:25;16.90;;;9.70;;
51949;SDS011;37974;53.218;6.640;2022-11-20T08:29:51;15.18;;;9.57;;
51949;SDS011;37974;53.218;6.640;2022-11-20T08:32:17;14.70;;;9.77;;
51949;SDS011;37974;53.218;6.640;2022-11-20T08:34:42;14.05;;;8.88;;
51949;SDS011;37974;53.218;6.640;2022-11-20T08:37:08;15.65;;;10.00;;
51949;SDS011;37974;53.218;6.640;2022-11-20T08:39:34;14.00;;;8.90;;
51949;SDS011;37974;53.218;6.640;2022-11-20T08:42:00;12.38;;;9.23;;
51949;SDS011;37974;53.218;6.640;2022-11-20T08:44:25;13.85;;;9.30;;
51949;SDS011;37974;53.218;6.640;2022-11-20T08:46:51;15.23;;;10.07;;
51949;SDS011;37974;53.218;6.640;2022-11-20T08:49:17;12.00;;;8.43;;
51949;SDS011;37974;53.218;6.640;2022-11-20T08:51:43;14.27;;;9.10;;
51949;SDS011;37974;53.218;6.640;2022-11-20T08:54:09;13.23;;;9.25;;
51949;SDS011;37974;53.218;6.640;2022-11-20T08:56:35;13.77;;;9.50;;
51949;SDS011;37974;53.218;6.640;2022-11-20T08:59:03;15.02;;;9.70;;
51949;SDS011;37974;53.218;6.640;2022-11-20T09:01:28;13.48;;;9.85;;
51949;SDS011;37974;53.218;6.640;2022-11-20T09:03:55;16.88;;;10.25;;
51949;SDS011;37974;53.218;6.640;2022-11-20T09:06:22;16.13;;;10.75;;
51949;SDS011;37974;53.218;6.640;2022-11-20T09:08:51;16.95;;;10.35;;
51949;SDS011;37974;53.218;6.640;2022-11-20T09:11:17;14.32;;;10.43;;
51949;SDS011;37974;53.218;6.640;2022-11-20T09:13:43;15.95;;;10.13;;
51949;SDS011;37974;53.218;6.640;2022-11-20T09:16:09;15.15;;;10.10;;
51949;SDS011;37974;53.218;6.640;2022-11-20T09:18:35;14.45;;;10.10;;
51949;SDS011;37974;53.218;6.640;2022-11-20T09:21:12;15.70;;;10.30;;
51949;SDS011;37974;53.218;6.640;2022-11-20T09:23:41;15.63;;;10.43;;
51949;SDS011;37974;53.218;6.640;2022-11-20T09:26:08;15.63;;;10.75;;
51949;SDS011;37974;53.218;6.640;2022-11-20T09:28:35;17.75;;;11.13;;
51949;SDS011;37974;53.218;6.640;2022-11-20T09:31:04;14.60;;;9.95;;
51949;SDS011;37974;53.218;6.640;2022-11-20T09:33:32;17.40;;;10.40;;
51949;SDS011;37974;53.218;6.640;2022-11-20T09:36:00;15.90;;;10.13;;
51949;SDS011;37974;53.218;6.640;2022-11-20T09:38:26;14.65;;;9.55;;
51949;SDS011;37974;53.218;6.640;2022-11-20T09:40:57;13.45;;;9.70;;
51949;SDS011;37974;53.218;6.640;2022-11-20T09:51:16;16.45;;;10.15;;
51949;SDS011;37974;53.218;6.640;2022-11-20T09:56:44;13.13;;;9.55;;
51949;SDS011;37974;53.218;6.640;2022-11-20T09:59:26;18.50;;;9.75;;
51949;SDS011;37974;53.218;6.640;2022-11-20T10:01:59;14.02;;;8.65;;
51949;SDS011;37974;53.218;6.640;2022-11-20T10:04:33;13.63;;;9.38;;
51949;SDS011;37974;53.218;6.640;2022-11-20T10:07:17;15.75;;;9.32;;
51949;SDS011;37974;53.218;6.640;2022-11-20T10:09:51;14.38;;;9.40;;
51949;SDS011;37974;53.218;6.640;2022-11-20T10:12:47;13.05;;;9.32;;
51949;SDS011;37974;53.218;6.640;2022-11-20T10:15:46;12.88;;;8.65;;
51949;SDS011;37974;53.218;6.640;2022-11-20T10:18:33;12.90;;;9.55;;
51949;SDS011;37974;53.218;6.640;2022-11-20T10:21:38;13.40;;;9.60;;
51949;SDS011;37974;53.218;6.640;2022-11-20T10:24:37;14.40;;;9.80;;
51949;SDS011;37974;53.218;6.640;2022-11-20T10:27:25;14.65;;;8.98;;
51949;SDS011;37974;53.218;6.640;2022-11-20T10:32:39;13.52;;;8.45;;
51949;SDS011;37974;53.218;6.640;2022-11-20T10:38:14;14.18;;;8.85;;
51949;SDS011;37974;53.218;6.640;2022-11-20T10:40:49;12.82;;;8.75;;
51949;SDS011;37974;53.218;6.640;2022-11-20T10:43:38;12.70;;;8.63;;
51949;SDS011;37974;53.218;6.640;2022-11-20T10:46:22;13.60;;;8.50;;
51949;SDS011;37974;53.218;6.640;2022-11-20T10:48:51;11.35;;;7.70;;
51949;SDS011;37974;53.218;6.640;2022-11-20T10:51:36;11.23;;;7.97;;
51949;SDS011;37974;53.218;6.640;2022-11-20T10:54:19;13.57;;;8.43;;
51949;SDS011;37974;53.218;6.640;2022-11-20T10:57:02;11.85;;;8.38;;
51949;SDS011;37974;53.218;6.640;2022-11-20T10:59:45;14.93;;;8.48;;
51949;SDS011;37974;53.218;6.640;2022-11-20T11:02:34;12.75;;;7.80;;
51949;SDS011;37974;53.218;6.640;2022-11-20T11:05:04;12.30;;;8.77;;
51949;SDS011;37974;53.218;6.640;2022-11-20T11:07:53;11.43;;;8.10;;
51949;SDS011;37974;53.218;6.640;2022-11-20T11:10:39;12.30;;;8.25;;
51949;SDS011;37974;53.218;6.640;2022-11-20T11:13:19;13.20;;;9.10;;
51949;SDS011;37974;53.218;6.640;2022-11-20T11:15:45;12.13;;;8.30;;
51949;SDS011;37974;53.218;6.640;2022-11-20T11:18:27;13.40;;;8.20;;
51949;SDS011;37974;53.218;6.640;2022-11-20T11:20:59;13.88;;;8.05;;
51949;SDS011;37974;53.218;6.640;2022-11-20T11:23:36;11.32;;;8.00;;
51949;SDS011;37974;53.218;6.640;2022-11-20T11:26:05;12.07;;;7.55;;
51949;SDS011;37974;53.218;6.640;2022-11-20T11:28:53;11.10;;;7.78;;
51949;SDS011;37974;53.218;6.640;2022-11-20T11:31:23;11.88;;;7.45;;
51949;SDS011;37974;53.218;6.640;2022-11-20T11:33:51;11.20;;;8.30;;
51949;SDS011;37974;53.218;6.640;2022-11-20T11:36:20;11.93;;;7.90;;
51949;SDS011;37974;53.218;6.640;2022-11-20T11:38:50;12.15;;;7.47;;
51949;SDS011;37974;53.218;6.640;2022-11-20T11:41:23;11.23;;;7.70;;
51949;SDS011;37974;53.218;6.640;2022-11-20T11:44:00;11.43;;;7.68;;
51949;SDS011;37974;53.218;6.640;2022-11-20T11:46:59;10.43;;;7.15;;
51949;SDS011;37974;53.218;6.640;2022-11-20T11:49:27;12.02;;;7.30;;
51949;SDS011;37974;53.218;6.640;2022-11-20T11:51:57;11.10;;;8.00;;
51949;SDS011;37974;53.218;6.640;2022-11-20T11:54:45;11.38;;;7.45;;
51949;SDS011;37974;53.218;6.640;2022-11-20T11:57:17;13.18;;;7.55;;
51949;SDS011;37974;53.218;6.640;2022-11-20T11:59:59;10.68;;;7.15;;
51949;SDS011;37974;53.218;6.640;2022-11-20T12:02:32;11.27;;;7.75;;
51949;SDS011;37974;53.218;6.640;2022-11-20T12:05:24;9.80;;;6.93;;
51949;SDS011;37974;53.218;6.640;2022-11-20T12:13:25;11.90;;;7.65;;
51949;SDS011;37974;53.218;6.640;2022-11-20T12:18:27;13.02;;;8.30;;
51949;SDS011;37974;53.218;6.640;2022-11-20T12:23:48;11.88;;;7.47;;
51949;SDS011;37974;53.218;6.640;2022-11-20T12:40:16;8.88;;;5.68;;
51949;SDS011;37974;53.218;6.640;2022-11-20T12:42:59;8.02;;;5.90;;
51949;SDS011;37974;53.218;6.640;2022-11-20T12:45:58;9.45;;;5.95;;
51949;SDS011;37974;53.218;6.640;2022-11-20T12:48:38;6.90;;;4.10;;
51949;SDS011;37974;53.218;6.640;2022-11-20T12:54:03;6.95;;;3.92;;
51949;SDS011;37974;53.218;6.640;2022-11-20T13:02:00;5.85;;;3.25;;
51949;SDS011;37974;53.218;6.640;2022-11-20T13:07:26;7.60;;;4.00;;
51949;SDS011;37974;53.218;6.640;2022-11-20T13:09:57;7.60;;;4.50;;
51949;SDS011;37974;53.218;6.640;2022-11-20T13:12:28;9.88;;;4.78;;
51949;SDS011;37974;53.218;6.640;2022-11-20T13:15:05;7.20;;;4.38;;
51949;SDS011;37974;53.218;6.640;2022-11-20T13:20:21;7.10;;;4.10;;
51949;SDS011;37974;53.218;6.640;2022-11-20T13:22:48;6.30;;;4.03;;
51949;SDS011;37974;53.218;6.640;2022-11-20T13:25:28;7.15;;;4.38;;
51949;SDS011;37974;53.218;6.640;2022-11-20T13:27:56;7.55;;;4.35;;
51949;SDS011;37974;53.218;6.640;2022-11-20T13:30:24;8.27;;;4.93;;
51949;SDS011;37974;53.218;6.640;2022-11-20T13:32:54;7.32;;;4.68;;
51949;SDS011;37974;53.218;6.640;2022-11-20T13:35:25;7.35;;;4.28;;
51949;SDS011;37974;53.218;6.640;2022-11-20T13:37:59;6.35;;;4.28;;
51949;SDS011;37974;53.218;6.640;2022-11-20T13:40:26;7.05;;;4.28;;
51949;SDS011;37974;53.218;6.640;2022-11-20T13:45:26;18.55;;;12.73;;
51949;SDS011;37974;53.218;6.640;2022-11-20T13:47:53;8.80;;;5.82;;
51949;SDS011;37974;53.218;6.640;2022-11-20T13:50:21;14.20;;;10.50;;
51949;SDS011;37974;53.218;6.640;2022-11-20T13:53:23;15.85;;;10.05;;
51949;SDS011;37974;53.218;6.640;2022-11-20T13:56:05;19.17;;;14.63;;
51949;SDS011;37974;53.218;6.640;2022-11-20T13:59:08;10.52;;;6.38;;
51949;SDS011;37974;53.218;6.640;2022-11-20T14:01:37;10.65;;;6.00;;
51949;SDS011;37974;53.218;6.640;2022-11-20T14:04:07;8.48;;;5.65;;
51949;SDS011;37974;53.218;6.640;2022-11-20T14:06:38;11.95;;;6.00;;
51949;SDS011;37974;53.218;6.640;2022-11-20T14:09:10;9.40;;;6.07;;
51949;SDS011;37974;53.218;6.640;2022-11-20T14:11:45;9.80;;;6.15;;
51949;SDS011;37974;53.218;6.640;2022-11-20T14:14:13;8.93;;;5.50;;
51949;SDS011;37974;53.218;6.640;2022-11-20T14:16:40;10.07;;;6.18;;
51949;SDS011;37974;53.218;6.640;2022-11-20T14:19:22;9.50;;;5.60;;
51949;SDS011;37974;53.218;6.640;2022-11-20T14:21:55;8.57;;;5.20;;
51949;SDS011;37974;53.218;6.640;2022-11-20T14:24:31;9.52;;;5.22;;
51949;SDS011;37974;53.218;6.640;2022-11-20T14:27:00;9.10;;;4.95;;
51949;SDS011;37974;53.218;6.640;2022-11-20T14:29:28;8.40;;;5.70;;
51949;SDS011;37974;53.218;6.640;2022-11-20T14:32:00;8.23;;;5.25;;
51949;SDS011;37974;53.218;6.640;2022-11-20T14:34:30;8.18;;;5.55;;
51949;SDS011;37974;53.218;6.640;2022-11-20T14:37:02;8.20;;;5.20;;
51949;SDS011;37974;53.218;6.640;2022-11-20T14:39:34;8.60;;;5.68;;
51949;SDS011;37974;53.218;6.640;2022-11-20T14:42:02;8.40;;;5.95;;
51949;SDS011;37974;53.218;6.640;2022-11-20T14:44:39;8.98;;;5.70;;
51949;SDS011;37974;53.218;6.640;2022-11-20T14:47:06;7.68;;;5.63;;
51949;SDS011;37974;53.218;6.640;2022-11-20T14:49:35;12.02;;;5.90;;
51949;SDS011;37974;53.218;6.640;2022-11-20T14:52:13;10.80;;;5.68;;
51949;SDS011;37974;53.218;6.640;2022-11-20T14:54:44;10.43;;;7.10;;
51949;SDS011;37974;53.218;6.640;2022-11-20T14:57:19;9.68;;;6.45;;
51949;SDS011;37974;53.218;6.640;2022-11-20T15:02:31;10.95;;;5.82;;
51949;SDS011;37974;53.218;6.640;2022-11-20T15:04:57;11.32;;;7.22;;
51949;SDS011;37974;53.218;6.640;2022-11-20T15:07:25;9.23;;;6.60;;
51949;SDS011;37974;53.218;6.640;2022-11-20T15:10:00;9.80;;;6.20;;
51949;SDS011;37974;53.218;6.640;2022-11-20T15:12:27;10.65;;;6.78;;
51949;SDS011;37974;53.218;6.640;2022-11-20T15:14:54;11.13;;;7.50;;
51949;SDS011;37974;53.218;6.640;2022-11-20T15:17:20;10.18;;;7.07;;
51949;SDS011;37974;53.218;6.640;2022-11-20T15:19:46;10.48;;;7.22;;
51949;SDS011;37974;53.218;6.640;2022-11-20T15:22:12;10.57;;;6.47;;
51949;SDS011;37974;53.218;6.640;2022-11-20T15:24:39;11.75;;;6.97;;
51949;SDS011;37974;53.218;6.640;2022-11-20T15:27:04;11.80;;;7.43;;
51949;SDS011;37974;53.218;6.640;2022-11-20T15:29:30;11.05;;;7.05;;
51949;SDS011;37974;53.218;6.640;2022-11-20T15:31:56;13.40;;;7.00;;
51949;SDS011;37974;53.218;6.640;2022-11-20T15:34:22;10.75;;;7.57;;
51949;SDS011;37974;53.218;6.640;2022-11-20T15:36:48;12.90;;;7.90;;
51949;SDS011;37974;53.218;6.640;2022-11-20T15:39:14;10.80;;;7.40;;
51949;SDS011;37974;53.218;6.640;2022-11-20T15:41:39;11.18;;;7.22;;
51949;SDS011;37974;53.218;6.640;2022-11-20T15:44:05;10.80;;;7.40;;
51949;SDS011;37974;53.218;6.640;2022-11-20T15:46:32;12.65;;;8.35;;
51949;SDS011;37974;53.218;6.640;2022-11-20T15:49:03;13.27;;;8.45;;
51949;SDS011;37974;53.218;6.640;2022-11-20T15:51:31;12.25;;;8.70;;